PDT,Max TemperatureF,Mean TemperatureF,Min TemperatureF,Max Dew PointF,MeanDew PointF,Min DewpointF,Max Humidity, Mean Humidity, Min Humidity, Max Sea Level PressureIn, Mean Sea Level PressureIn, Min Sea Level PressureIn, Max VisibilityMiles, Mean VisibilityMiles, Min VisibilityMiles, Max Wind SpeedMPH, Mean Wind SpeedMPH, Max Gust SpeedMPH,PrecipitationIn, CloudCover, Events, WindDirDegrees
2013-6-1,80,59,37,44,37,30,100,48,17,30.17,30.05,29.94,10,10,10,20,7,24,0.00,0,,314
2013-6-2,77,58,39,46,37,26,92,49,16,29.95,29.89,29.83,10,10,10,18,9,24,0.00,0,,329
2013-6-3,80,61,42,48,38,28,83,47,16,29.97,29.93,29.87,10,10,10,15,6,18,0.00,0,,343
2013-6-4,85,65,45,48,41,31,86,43,14,30.00,29.95,29.90,10,10,10,15,6,18,0.00,0,,344
2013-6-5,89,68,47,48,40,23,71,38,9,30.02,29.96,29.90,10,10,10,15,6,20,0.00,0,,344
2013-6-6,89,67,45,54,44,26,93,48,10,29.97,29.94,29.89,10,10,10,22,6,25,0.00,0,,301
2013-6-7,88,68,48,55,49,37,86,52,18,30.01,29.97,29.93,10,10,10,20,7,23,0.00,0,,318
2013-6-8,91,69,46,54,42,31,93,43,12,30.03,29.96,29.89,10,10,10,16,5,18,0.00,0,,323
2013-6-9,91,71,50,52,45,36,83,42,16,29.92,29.83,29.74,10,10,10,20,7,24,0.00,0,,324
2013-6-10,82,65,48,49,37,18,86,42,10,29.82,29.75,29.70,10,10,10,22,8,29,0.00,0,,282
2013-6-11,71,58,44,43,36,22,76,49,16,30.00,29.91,29.83,10,10,10,24,8,30,0.00,3,,287
2013-6-12,69,52,35,37,32,25,92,49,22,30.07,30.01,29.98,10,10,10,22,8,33,0.00,2,,301
2013-6-13,63,48,33,35,32,28,89,54,27,30.24,30.14,30.07,10,10,10,23,8,30,0.00,1,,300
2013-6-14,74,52,30,35,28,21,89,45,15,30.22,30.08,29.93,10,10,9,10,3,18,0.00,0,,24
2013-6-15,82,59,35,43,33,23,82,43,13,29.95,29.90,29.84,10,10,10,21,4,33,0.00,1,,262
2013-6-16,80,61,41,47,40,29,89,50,16,30.05,30.00,29.96,10,10,10,21,6,26,0.00,0,,258
2013-6-17,78,59,40,45,40,32,93,55,19,30.05,29.96,29.88,10,10,10,21,7,28,0.00,1,,264
2013-6-18,65,54,42,44,41,30,92,68,30,29.98,29.90,29.83,10,10,6,18,6,29,0.20,7,Rain,265
2013-6-19,54,45,36,43,38,35,92,78,63,30.10,30.01,29.91,10,10,5,25,9,36,0.12,6,Rain,272
2013-6-20,63,49,34,41,36,34,100,70,39,30.12,30.06,30.01,10,10,9,24,5,29,0.02,4,,330
2013-6-21,71,52,32,42,35,28,100,67,22,30.12,30.08,30.02,10,8,0,20,6,25,0.00,1,Fog,322
2013-6-22,77,58,38,42,39,33,100,52,25,30.06,29.97,29.85,10,10,8,17,4,20,0.00,1,,306
2013-6-23,67,60,52,52,48,45,77,64,52,29.84,29.73,29.65,10,10,10,21,8,28,0.02,7,Rain,214
2013-6-24,58,54,50,50,47,43,96,82,66,29.83,29.74,29.64,10,8,2,22,8,28,0.55,7,Rain,199
2013-6-25,62,56,50,55,51,45,100,84,72,29.92,29.84,29.77,10,9,5,22,7,25,0.15,7,Rain,188
2013-6-26,74,62,50,56,52,48,96,79,46,30.05,29.97,29.91,10,9,1,26,10,33,0.10,5,Rain,167
2013-6-27,86,69,51,57,51,46,89,56,27,30.14,30.09,30.05,10,10,10,12,4,14,0.00,0,,198
2013-6-28,91,71,50,57,52,45,100,55,21,30.15,30.08,29.99,10,10,4,21,4,24,0.00,0,,326
2013-6-29,90,73,55,58,52,42,93,53,21,30.04,30.00,29.94,10,10,10,20,5,25,0.00,0,,311
2013-6-30,96,75,54,58,51,39,83,48,14,30.00,29.91,29.80,10,10,10,20,7,24,0.00,0,,324